sensor_id;sensor_type;location;lat;lon;timestamp;pressure;altitude;pressure_sealevel;temperature;humidity
40948;BME280;49382;-25.924;28.194;2022-11-14T00:00:49;85282.96;;;16.74;52.05
40948;BME280;49382;-25.924;28.194;2022-11-14T00:03:13;85283.98;;;17.14;51.05
40948;BME280;49382;-25.924;28.194;2022-11-14T00:05:40;85283.55;;;16.39;51.98
40948;BME280;49382;-25.924;28.194;2022-11-14T00:08:06;85290.51;;;16.80;51.90
40948;BME280;49382;-25.924;28.194;2022-11-14T00:10:30;85287.37;;;17.27;50.86
40948;BME280;49382;-25.924;28.194;2022-11-14T00:12:55;85285.32;;;16.69;52.02
40948;BME280;49382;-25.924;28.194;2022-11-14T00:15:21;85293.40;;;16.98;51.42
40948;BME280;49382;-25.924;28.194;2022-11-14T00:17:47;85294.36;;;16.80;51.40
40948;BME280;49382;-25.924;28.194;2022-11-14T00:20:12;85294.11;;;16.86;51.52
40948;BME280;49382;-25.924;28.194;2022-11-14T00:22:38;85301.99;;;16.97;50.82
40948;BME280;49382;-25.924;28.194;2022-11-14T00:25:03;85295.23;;;16.90;50.98
40948;BME280;49382;-25.924;28.194;2022-11-14T00:27:28;85290.39;;;18.34;48.41
40948;BME280;49382;-25.924;28.194;2022-11-14T00:29:54;85297.56;;;17.85;49.79
40948;BME280;49382;-25.924;28.194;2022-11-14T00:32:19;85299.24;;;18.26;48.32
40948;BME280;49382;-25.924;28.194;2022-11-14T00:34:45;85304.73;;;17.99;48.93
40948;BME280;49382;-25.924;28.194;2022-11-14T00:37:10;85295.17;;;16.98;50.64
40948;BME280;49382;-25.924;28.194;2022-11-14T00:39:35;85300.73;;;17.92;48.89
40948;BME280;49382;-25.924;28.194;2022-11-14T00:42:00;85301.86;;;16.92;50.89
40948;BME280;49382;-25.924;28.194;2022-11-14T00:44:26;85302.87;;;17.35;50.13
40948;BME280;49382;-25.924;28.194;2022-11-14T00:46:51;85306.79;;;16.72;51.52
40948;BME280;49382;-25.924;28.194;2022-11-14T00:49:17;85308.30;;;17.25;50.49
40948;BME280;49382;-25.924;28.194;2022-11-14T00:51:43;85312.38;;;17.12;50.58
40948;BME280;49382;-25.924;28.194;2022-11-14T00:54:08;85323.52;;;17.06;51.93
40948;BME280;49382;-25.924;28.194;2022-11-14T00:56:33;85328.44;;;17.63;49.86
40948;BME280;49382;-25.924;28.194;2022-11-14T00:58:59;85329.54;;;17.33;50.69
40948;BME280;49382;-25.924;28.194;2022-11-14T01:01:25;85329.14;;;17.41;50.38
40948;BME280;49382;-25.924;28.194;2022-11-14T01:03:51;85330.36;;;16.85;51.49
40948;BME280;49382;-25.924;28.194;2022-11-14T01:06:17;85332.20;;;17.09;51.63
40948;BME280;49382;-25.924;28.194;2022-11-14T01:08:42;85333.71;;;17.33;51.14
40948;BME280;49382;-25.924;28.194;2022-11-14T01:11:10;85337.28;;;17.53;50.38
40948;BME280;49382;-25.924;28.194;2022-11-14T01:13:32;85337.79;;;17.33;50.61
40948;BME280;49382;-25.924;28.194;2022-11-14T01:16:00;85337.68;;;17.46;50.38
40948;BME280;49382;-25.924;28.194;2022-11-14T01:18:23;85342.68;;;17.99;49.67
40948;BME280;49382;-25.924;28.194;2022-11-14T01:20:48;85343.74;;;17.55;50.41
40948;BME280;49382;-25.924;28.194;2022-11-14T01:23:15;85343.15;;;17.44;50.63
40948;BME280;49382;-25.924;28.194;2022-11-14T01:25:39;85345.40;;;17.05;51.48
40948;BME280;49382;-25.924;28.194;2022-11-14T01:28:05;85344.10;;;17.56;51.37
40948;BME280;49382;-25.924;28.194;2022-11-14T01:30:29;85348.55;;;17.19;51.10
40948;BME280;49382;-25.924;28.194;2022-11-14T01:32:54;85347.56;;;17.30;50.78
40948;BME280;49382;-25.924;28.194;2022-11-14T01:35:20;85350.67;;;17.89;50.63
40948;BME280;49382;-25.924;28.194;2022-11-14T01:37:45;85352.39;;;17.20;50.75
40948;BME280;49382;-25.924;28.194;2022-11-14T01:40:12;85350.18;;;16.86;51.32
40948;BME280;49382;-25.924;28.194;2022-11-14T01:42:37;85355.93;;;17.83;49.83
40948;BME280;49382;-25.924;28.194;2022-11-14T01:47:31;85354.66;;;17.32;50.63
40948;BME280;49382;-25.924;28.194;2022-11-14T01:49:56;85357.47;;;17.55;50.22
40948;BME280;49382;-25.924;28.194;2022-11-14T01:52:21;85358.08;;;17.13;50.94
40948;BME280;49382;-25.924;28.194;2022-11-14T01:54:47;85359.19;;;17.72;49.77
40948;BME280;49382;-25.924;28.194;2022-11-14T01:57:11;85363.56;;;17.59;50.04
40948;BME280;49382;-25.924;28.194;2022-11-14T01:59:38;85366.86;;;17.79;49.48
40948;BME280;49382;-25.924;28.194;2022-11-14T02:02:05;85369.48;;;16.89;51.36
40948;BME280;49382;-25.924;28.194;2022-11-14T02:04:27;85379.52;;;17.53;50.20
40948;BME280;49382;-25.924;28.194;2022-11-14T02:06:54;85382.68;;;16.98;51.45
40948;BME280;49382;-25.924;28.194;2022-11-14T02:09:17;85381.10;;;17.17;50.88
40948;BME280;49382;-25.924;28.194;2022-11-14T02:11:44;85386.06;;;17.24;51.72
40948;BME280;49382;-25.924;28.194;2022-11-14T02:14:08;85391.39;;;17.73;50.71
40948;BME280;49382;-25.924;28.194;2022-11-14T02:16:33;85386.17;;;16.91;51.87
40948;BME280;49382;-25.924;28.194;2022-11-14T02:18:58;85396.29;;;16.90;51.92
40948;BME280;49382;-25.924;28.194;2022-11-14T02:21:24;85388.91;;;17.54;50.57
40948;BME280;49382;-25.924;28.194;2022-11-14T02:23:50;85394.63;;;16.56;52.42
40948;BME280;49382;-25.924;28.194;2022-11-14T02:26:17;85395.49;;;17.31;51.34
40948;BME280;49382;-25.924;28.194;2022-11-14T02:28:42;85395.33;;;16.71;51.93
40948;BME280;49382;-25.924;28.194;2022-11-14T02:31:07;85394.54;;;17.13;51.81
40948;BME280;49382;-25.924;28.194;2022-11-14T02:33:33;85394.60;;;17.04;52.13
40948;BME280;49382;-25.924;28.194;2022-11-14T02:35:59;85398.38;;;17.22;51.46
40948;BME280;49382;-25.924;28.194;2022-11-14T02:38:25;85402.29;;;16.84;51.83
40948;BME280;49382;-25.924;28.194;2022-11-14T02:40:50;85403.45;;;17.94;48.98
40948;BME280;49382;-25.924;28.194;2022-11-14T02:43:16;85411.63;;;17.25;50.12
40948;BME280;49382;-25.924;28.194;2022-11-14T02:45:42;85414.68;;;17.23;50.17
40948;BME280;49382;-25.924;28.194;2022-11-14T02:48:08;85416.73;;;17.18;51.13
40948;BME280;49382;-25.924;28.194;2022-11-14T02:50:34;85415.59;;;17.44;49.75
40948;BME280;49382;-25.924;28.194;2022-11-14T02:53:00;85423.71;;;17.34;49.97
40948;BME280;49382;-25.924;28.194;2022-11-14T02:55:25;85421.11;;;16.90;50.50
40948;BME280;49382;-25.924;28.194;2022-11-14T02:57:51;85418.42;;;17.08;50.15
40948;BME280;49382;-25.924;28.194;2022-11-14T03:00:18;85422.18;;;17.10;51.05
40948;BME280;49382;-25.924;28.194;2022-11-14T03:02:43;85424.86;;;16.94;50.55
40948;BME280;49382;-25.924;28.194;2022-11-14T03:05:09;85422.49;;;17.07;50.28
40948;BME280;49382;-25.924;28.194;2022-11-14T03:07:35;85426.39;;;17.11;50.13
40948;BME280;49382;-25.924;28.194;2022-11-14T03:10:00;85427.51;;;16.75;51.58
40948;BME280;49382;-25.924;28.194;2022-11-14T03:12:26;85428.48;;;17.08;51.11
40948;BME280;49382;-25.924;28.194;2022-11-14T03:14:52;85437.54;;;17.53;50.07
40948;BME280;49382;-25.924;28.194;2022-11-14T03:17:18;85439.51;;;17.34;51.19
40948;BME280;49382;-25.924;28.194;2022-11-14T03:19:44;85445.11;;;17.69;50.40
40948;BME280;49382;-25.924;28.194;2022-11-14T03:22:09;85432.70;;;18.01;49.81
40948;BME280;49382;-25.924;28.194;2022-11-14T03:24:35;85433.03;;;17.46;50.24
40948;BME280;49382;-25.924;28.194;2022-11-14T03:27:01;85437.30;;;16.92;51.42
40948;BME280;49382;-25.924;28.194;2022-11-14T03:29:26;85439.58;;;18.90;48.62
40948;BME280;49382;-25.924;28.194;2022-11-14T03:31:53;85440.27;;;17.94;50.10
40948;BME280;49382;-25.924;28.194;2022-11-14T03:34:18;85446.35;;;16.74;51.42
40948;BME280;49382;-25.924;28.194;2022-11-14T03:36:44;85454.79;;;16.92;51.33
40948;BME280;49382;-25.924;28.194;2022-11-14T03:39:10;85453.06;;;17.12;50.92
40948;BME280;49382;-25.924;28.194;2022-11-14T03:41:35;85455.75;;;17.29;50.72
40948;BME280;49382;-25.924;28.194;2022-11-14T03:44:01;85452.22;;;17.65;49.41
40948;BME280;49382;-25.924;28.194;2022-11-14T03:46:27;85456.98;;;17.71;49.25
40948;BME280;49382;-25.924;28.194;2022-11-14T03:48:53;85458.01;;;16.83;50.03
40948;BME280;49382;-25.924;28.194;2022-11-14T03:51:19;85466.33;;;16.95;50.00
40948;BME280;49382;-25.924;28.194;2022-11-14T03:53:44;85469.16;;;17.38;48.58
40948;BME280;49382;-25.924;28.194;2022-11-14T03:56:10;85470.44;;;16.82;49.62
40948;BME280;49382;-25.924;28.194;2022-11-14T03:58:36;85469.26;;;16.77;49.60
40948;BME280;49382;-25.924;28.194;2022-11-14T04:01:02;85475.93;;;16.87;49.48
40948;BME280;49382;-25.924;28.194;2022-11-14T04:03:28;85477.29;;;18.07;48.10
40948;BME280;49382;-25.924;28.194;2022-11-14T04:05:54;85474.91;;;16.64;49.70
40948;BME280;49382;-25.924;28.194;2022-11-14T04:08:19;85480.20;;;17.10;48.54
40948;BME280;49382;-25.924;28.194;2022-11-14T04:10:47;85481.88;;;17.00;48.49
40948;BME280;49382;-25.924;28.194;2022-11-14T04:13:11;85488.63;;;17.67;48.26
40948;BME280;49382;-25.924;28.194;2022-11-14T04:15:37;85498.56;;;17.87;47.81
40948;BME280;49382;-25.924;28.194;2022-11-14T04:18:02;85490.58;;;17.38;49.00
40948;BME280;49382;-25.924;28.194;2022-11-14T04:20:28;85486.70;;;16.86;49.50
40948;BME280;49382;-25.924;28.194;2022-11-14T04:22:53;85499.26;;;17.87;47.18
40948;BME280;49382;-25.924;28.194;2022-11-14T04:25:19;85498.62;;;16.52;49.67
40948;BME280;49382;-25.924;28.194;2022-11-14T04:27:45;85499.26;;;17.37;49.35
40948;BME280;49382;-25.924;28.194;2022-11-14T04:30:10;85501.74;;;16.73;49.91
40948;BME280;49382;-25.924;28.194;2022-11-14T04:32:36;85509.71;;;17.35;48.46
40948;BME280;49382;-25.924;28.194;2022-11-14T04:35:02;85498.78;;;17.20;49.26
40948;BME280;49382;-25.924;28.194;2022-11-14T04:37:27;85509.49;;;17.89;47.95
40948;BME280;49382;-25.924;28.194;2022-11-14T04:39:53;85511.44;;;16.62;50.57
40948;BME280;49382;-25.924;28.194;2022-11-14T04:42:19;85510.11;;;17.22;49.07
40948;BME280;49382;-25.924;28.194;2022-11-14T04:44:44;85520.47;;;16.87;49.07
40948;BME280;49382;-25.924;28.194;2022-11-14T04:47:10;85520.14;;;17.28;48.98
40948;BME280;49382;-25.924;28.194;2022-11-14T04:49:36;85530.08;;;17.56;47.67
40948;BME280;49382;-25.924;28.194;2022-11-14T04:52:02;85541.37;;;17.03;48.67
40948;BME280;49382;-25.924;28.194;2022-11-14T04:54:27;85544.16;;;17.32;49.58
40948;BME280;49382;-25.924;28.194;2022-11-14T04:56:53;85537.64;;;16.36;51.04
40948;BME280;49382;-25.924;28.194;2022-11-14T04:59:19;85537.27;;;16.63;49.85
40948;BME280;49382;-25.924;28.194;2022-11-14T05:01:45;85548.82;;;17.34;48.28
40948;BME280;49382;-25.924;28.194;2022-11-14T05:04:10;85546.77;;;17.47;47.97
40948;BME280;49382;-25.924;28.194;2022-11-14T05:06:36;85541.02;;;17.40;47.75
40948;BME280;49382;-25.924;28.194;2022-11-14T05:09:02;85546.28;;;17.13;48.42
40948;BME280;49382;-25.924;28.194;2022-11-14T05:11:28;85548.28;;;17.37;47.37
40948;BME280;49382;-25.924;28.194;2022-11-14T05:13:54;85551.09;;;17.60;47.13
40948;BME280;49382;-25.924;28.194;2022-11-14T05:16:19;85550.57;;;17.22;48.25
40948;BME280;49382;-25.924;28.194;2022-11-14T05:18:45;85542.66;;;17.51;47.54
40948;BME280;49382;-25.924;28.194;2022-11-14T05:21:12;85545.64;;;18.18;46.80
40948;BME280;49382;-25.924;28.194;2022-11-14T05:23:36;85546.25;;;18.30;46.19
40948;BME280;49382;-25.924;28.194;2022-11-14T05:26:04;85542.52;;;18.63;45.48
40948;BME280;49382;-25.924;28.194;2022-11-14T05:28:28;85548.41;;;19.01;45.03
40948;BME280;49382;-25.924;28.194;2022-11-14T05:31:00;85550.95;;;19.39;44.50
40948;BME280;49382;-25.924;28.194;2022-11-14T05:33:19;85552.83;;;19.99;42.79
40948;BME280;49382;-25.924;28.194;2022-11-14T05:35:45;85561.23;;;19.12;43.93
40948;BME280;49382;-25.924;28.194;2022-11-14T05:38:11;85565.61;;;19.22;43.94
40948;BME280;49382;-25.924;28.194;2022-11-14T05:40:37;85562.57;;;19.46;44.28
40948;BME280;49382;-25.924;28.194;2022-11-14T05:43:03;85570.01;;;19.80;43.10
40948;BME280;49382;-25.924;28.194;2022-11-14T05:45:29;85569.68;;;19.08;43.53
40948;BME280;49382;-25.924;28.194;2022-11-14T05:47:54;85575.18;;;19.65;42.89
40948;BME280;49382;-25.924;28.194;2022-11-14T05:50:20;85578.87;;;19.68;43.51
40948;BME280;49382;-25.924;28.194;2022-11-14T05:52:46;85575.54;;;20.19;42.37
40948;BME280;49382;-25.924;28.194;2022-11-14T05:55:12;85574.03;;;19.95;42.97
40948;BME280;49382;-25.924;28.194;2022-11-14T05:57:37;85578.83;;;19.48;43.44
40948;BME280;49382;-25.924;28.194;2022-11-14T06:00:04;85582.79;;;19.63;42.87
40948;BME280;49382;-25.924;28.194;2022-11-14T06:02:29;85577.95;;;20.28;41.71
40948;BME280;49382;-25.924;28.194;2022-11-14T06:04:55;85585.11;;;19.54;44.32
40948;BME280;49382;-25.924;28.194;2022-11-14T06:07:20;85594.04;;;19.16;43.88
40948;BME280;49382;-25.924;28.194;2022-11-14T06:09:46;85588.06;;;19.08;45.28
40948;BME280;49382;-25.924;28.194;2022-11-14T06:12:12;85589.56;;;18.34;46.58
40948;BME280;49382;-25.924;28.194;2022-11-14T06:14:37;85601.15;;;18.40;45.38
40948;BME280;49382;-25.924;28.194;2022-11-14T06:17:04;85602.07;;;19.59;43.55
40948;BME280;49382;-25.924;28.194;2022-11-14T06:19:29;85607.15;;;18.93;44.62
40948;BME280;49382;-25.924;28.194;2022-11-14T06:21:55;85605.42;;;19.85;43.19
40948;BME280;49382;-25.924;28.194;2022-11-14T06:24:20;85606.25;;;18.28;45.19
40948;BME280;49382;-25.924;28.194;2022-11-14T06:26:46;85610.66;;;19.25;43.78
40948;BME280;49382;-25.924;28.194;2022-11-14T06:29:12;85611.32;;;19.01;44.22
40948;BME280;49382;-25.924;28.194;2022-11-14T06:31:37;85617.49;;;19.35;43.72
40948;BME280;49382;-25.924;28.194;2022-11-14T06:34:05;85608.02;;;18.67;45.34
40948;BME280;49382;-25.924;28.194;2022-11-14T06:36:29;85608.46;;;19.12;44.00
40948;BME280;49382;-25.924;28.194;2022-11-14T06:38:55;85600.71;;;19.88;42.44
40948;BME280;49382;-25.924;28.194;2022-11-14T06:41:21;85619.62;;;20.48;43.20
40948;BME280;49382;-25.924;28.194;2022-11-14T06:43:47;85612.24;;;20.43;41.75
40948;BME280;49382;-25.924;28.194;2022-11-14T06:46:13;85614.19;;;19.42;42.86
40948;BME280;49382;-25.924;28.194;2022-11-14T06:48:38;85623.64;;;20.25;41.39
40948;BME280;49382;-25.924;28.194;2022-11-14T06:51:05;85618.21;;;19.88;41.82
40948;BME280;49382;-25.924;28.194;2022-11-14T06:53:32;85628.42;;;20.30;41.51
40948;BME280;49382;-25.924;28.194;2022-11-14T06:55:56;85624.03;;;20.77;40.29
40948;BME280;49382;-25.924;28.194;2022-11-14T06:58:21;85625.12;;;19.88;41.54
40948;BME280;49382;-25.924;28.194;2022-11-14T07:00:46;85622.45;;;21.06;39.51
40948;BME280;49382;-25.924;28.194;2022-11-14T07:03:12;85629.41;;;19.69;41.00
40948;BME280;49382;-25.924;28.194;2022-11-14T07:05:38;85627.77;;;20.16;41.54
40948;BME280;49382;-25.924;28.194;2022-11-14T07:08:04;85631.24;;;19.73;41.93
40948;BME280;49382;-25.924;28.194;2022-11-14T07:10:30;85633.38;;;20.40;40.77
40948;BME280;49382;-25.924;28.194;2022-11-14T07:12:56;85628.40;;;20.53;40.22
40948;BME280;49382;-25.924;28.194;2022-11-14T07:15:21;85626.09;;;20.44;40.54
40948;BME280;49382;-25.924;28.194;2022-11-14T07:17:47;85621.31;;;21.49;38.66
40948;BME280;49382;-25.924;28.194;2022-11-14T07:20:13;85626.04;;;21.86;39.35
40948;BME280;49382;-25.924;28.194;2022-11-14T07:22:39;85626.01;;;21.68;38.91
40948;BME280;49382;-25.924;28.194;2022-11-14T07:25:05;85639.55;;;21.95;38.03
40948;BME280;49382;-25.924;28.194;2022-11-14T07:27:30;85637.31;;;21.53;38.44
40948;BME280;49382;-25.924;28.194;2022-11-14T07:29:56;85632.15;;;21.27;39.43
40948;BME280;49382;-25.924;28.194;2022-11-14T07:32:21;85635.09;;;21.10;38.73
40948;BME280;49382;-25.924;28.194;2022-11-14T07:34:47;85634.44;;;22.40;37.51
40948;BME280;49382;-25.924;28.194;2022-11-14T07:37:12;85641.28;;;21.69;38.47
40948;BME280;49382;-25.924;28.194;2022-11-14T07:39:38;85620.87;;;22.25;36.89
40948;BME280;49382;-25.924;28.194;2022-11-14T07:42:04;85624.28;;;22.82;37.71
40948;BME280;49382;-25.924;28.194;2022-11-14T07:44:30;85626.75;;;22.55;37.47
40948;BME280;49382;-25.924;28.194;2022-11-14T07:46:55;85623.63;;;22.19;38.91
40948;BME280;49382;-25.924;28.194;2022-11-14T07:49:21;85626.31;;;21.71;38.23
40948;BME280;49382;-25.924;28.194;2022-11-14T07:51:47;85622.27;;;21.92;37.76
40948;BME280;49382;-25.924;28.194;2022-11-14T07:54:13;85629.82;;;22.74;36.25
40948;BME280;49382;-25.924;28.194;2022-11-14T07:56:38;85621.23;;;22.33;36.48
40948;BME280;49382;-25.924;28.194;2022-11-14T07:59:04;85613.25;;;22.59;36.87
40948;BME280;49382;-25.924;28.194;2022-11-14T08:01:29;85626.69;;;22.01;37.20
40948;BME280;49382;-25.924;28.194;2022-11-14T08:03:55;85623.83;;;21.70;37.86
40948;BME280;49382;-25.924;28.194;2022-11-14T08:06:20;85619.50;;;21.70;37.84
40948;BME280;49382;-25.924;28.194;2022-11-14T08:08:46;85626.80;;;20.39;40.56
40948;BME280;49382;-25.924;28.194;2022-11-14T08:11:11;85616.76;;;21.22;39.54
40948;BME280;49382;-25.924;28.194;2022-11-14T08:13:37;85614.62;;;22.23;37.44
40948;BME280;49382;-25.924;28.194;2022-11-14T08:16:04;85612.07;;;22.07;37.31
40948;BME280;49382;-25.924;28.194;2022-11-14T08:18:28;85626.10;;;22.00;37.88
40948;BME280;49382;-25.924;28.194;2022-11-14T08:20:54;85617.93;;;21.44;38.43
40948;BME280;49382;-25.924;28.194;2022-11-14T08:23:19;85614.73;;;21.28;38.48
40948;BME280;49382;-25.924;28.194;2022-11-14T08:25:45;85619.97;;;21.20;38.58
40948;BME280;49382;-25.924;28.194;2022-11-14T08:28:11;85614.47;;;21.64;38.40
40948;BME280;49382;-25.924;28.194;2022-11-14T08:30:36;85610.10;;;22.40;37.40
40948;BME280;49382;-25.924;28.194;2022-11-14T08:33:03;85622.14;;;22.60;37.45
40948;BME280;49382;-25.924;28.194;2022-11-14T08:35:28;85616.80;;;21.11;39.26
40948;BME280;49382;-25.924;28.194;2022-11-14T08:37:53;85617.26;;;21.70;37.77
40948;BME280;49382;-25.924;28.194;2022-11-14T08:40:19;85607.76;;;21.71;38.47
40948;BME280;49382;-25.924;28.194;2022-11-14T08:42:45;85616.34;;;21.99;37.67
40948;BME280;49382;-25.924;28.194;2022-11-14T08:45:10;85614.73;;;22.12;37.95
40948;BME280;49382;-25.924;28.194;2022-11-14T08:47:36;85615.32;;;22.23;38.18
40948;BME280;49382;-25.924;28.194;2022-11-14T08:50:03;85605.35;;;21.50;38.20
40948;BME280;49382;-25.924;28.194;2022-11-14T08:52:27;85605.86;;;22.74;36.67
40948;BME280;49382;-25.924;28.194;2022-11-14T08:54:53;85603.00;;;22.59;38.16
40948;BME280;49382;-25.924;28.194;2022-11-14T08:57:19;85619.26;;;23.12;36.28
40948;BME280;49382;-25.924;28.194;2022-11-14T08:59:45;85599.20;;;22.01;37.36
40948;BME280;49382;-25.924;28.194;2022-11-14T09:02:10;85598.12;;;22.77;37.12
40948;BME280;49382;-25.924;28.194;2022-11-14T09:04:36;85606.15;;;22.82;37.77
40948;BME280;49382;-25.924;28.194;2022-11-14T09:07:01;85602.35;;;22.38;38.24
40948;BME280;49382;-25.924;28.194;2022-11-14T09:09:27;85598.23;;;23.02;37.38
40948;BME280;49382;-25.924;28.194;2022-11-14T09:11:53;85593.35;;;23.42;37.12
40948;BME280;49382;-25.924;28.194;2022-11-14T09:14:18;85595.03;;;23.62;36.29
40948;BME280;49382;-25.924;28.194;2022-11-14T09:16:46;85591.83;;;22.58;37.03
40948;BME280;49382;-25.924;28.194;2022-11-14T09:19:10;85597.57;;;22.71;36.16
40948;BME280;49382;-25.924;28.194;2022-11-14T09:21:35;85586.87;;;22.06;37.19
40948;BME280;49382;-25.924;28.194;2022-11-14T09:24:01;85587.82;;;22.11;36.87
40948;BME280;49382;-25.924;28.194;2022-11-14T09:26:26;85579.65;;;23.52;35.52
40948;BME280;49382;-25.924;28.194;2022-11-14T09:28:52;85579.58;;;23.37;35.22
40948;BME280;49382;-25.924;28.194;2022-11-14T09:31:17;85601.00;;;24.40;33.83
40948;BME280;49382;-25.924;28.194;2022-11-14T09:33:43;85584.77;;;23.10;35.81
40948;BME280;49382;-25.924;28.194;2022-11-14T09:36:10;85583.01;;;23.01;36.12
40948;BME280;49382;-25.924;28.194;2022-11-14T09:38:34;85577.42;;;23.32;35.51
40948;BME280;49382;-25.924;28.194;2022-11-14T09:41:09;85585.22;;;24.39;33.60
40948;BME280;49382;-25.924;28.194;2022-11-14T09:43:37;85591.43;;;24.49;33.78
40948;BME280;49382;-25.924;28.194;2022-11-14T09:45:53;85577.67;;;23.37;34.43
40948;BME280;49382;-25.924;28.194;2022-11-14T09:48:20;85587.24;;;23.79;35.16
40948;BME280;49382;-25.924;28.194;2022-11-14T09:50:47;85575.24;;;24.05;33.43
40948;BME280;49382;-25.924;28.194;2022-11-14T09:53:12;85593.32;;;24.61;34.44
40948;BME280;49382;-25.924;28.194;2022-11-14T09:55:34;85579.90;;;24.52;33.04
40948;BME280;49382;-25.924;28.194;2022-11-14T09:58:02;85576.57;;;23.74;34.27
40948;BME280;49382;-25.924;28.194;2022-11-14T10:00:33;85571.82;;;24.01;33.66
40948;BME280;49382;-25.924;28.194;2022-11-14T10:03:02;85574.82;;;24.21;33.72
40948;BME280;49382;-25.924;28.194;2022-11-14T10:05:26;85568.49;;;24.86;32.75
40948;BME280;49382;-25.924;28.194;2022-11-14T10:07:52;85562.17;;;24.48;33.89
40948;BME280;49382;-25.924;28.194;2022-11-14T10:10:25;85569.73;;;23.82;35.06
40948;BME280;49382;-25.924;28.194;2022-11-14T10:12:39;85553.57;;;25.04;33.04
40948;BME280;49382;-25.924;28.194;2022-11-14T10:15:13;85554.81;;;24.48;32.19
40948;BME280;49382;-25.924;28.194;2022-11-14T10:19:58;85554.81;;;24.31;32.77
40948;BME280;49382;-25.924;28.194;2022-11-14T10:22:26;85545.69;;;24.43;33.43
40948;BME280;49382;-25.924;28.194;2022-11-14T10:24:55;85555.01;;;24.23;33.43
40948;BME280;49382;-25.924;28.194;2022-11-14T10:27:15;85550.48;;;23.29;34.17
40948;BME280;49382;-25.924;28.194;2022-11-14T10:29:45;85540.48;;;23.33;34.48
40948;BME280;49382;-25.924;28.194;2022-11-14T10:32:09;85534.57;;;23.40;33.82
40948;BME280;49382;-25.924;28.194;2022-11-14T10:34:30;85544.36;;;23.93;32.85
40948;BME280;49382;-25.924;28.194;2022-11-14T10:36:58;85536.09;;;23.16;33.91
40948;BME280;49382;-25.924;28.194;2022-11-14T10:39:20;85528.80;;;23.17;33.48
40948;BME280;49382;-25.924;28.194;2022-11-14T10:41:43;85530.74;;;23.66;32.76
40948;BME280;49382;-25.924;28.194;2022-11-14T10:44:10;85522.62;;;23.61;33.75
40948;BME280;49382;-25.924;28.194;2022-11-14T10:46:36;85514.83;;;23.15;34.84
40948;BME280;49382;-25.924;28.194;2022-11-14T10:49:00;85520.84;;;23.87;34.52
40948;BME280;49382;-25.924;28.194;2022-11-14T10:51:29;85513.36;;;24.23;33.62
40948;BME280;49382;-25.924;28.194;2022-11-14T10:53:54;85511.88;;;24.02;33.30
40948;BME280;49382;-25.924;28.194;2022-11-14T10:56:16;85507.21;;;24.36;31.65
40948;BME280;49382;-25.924;28.194;2022-11-14T10:58:43;85512.81;;;24.56;32.33
40948;BME280;49382;-25.924;28.194;2022-11-14T11:03:40;85502.72;;;24.87;32.03
40948;BME280;49382;-25.924;28.194;2022-11-14T11:05:59;85500.22;;;24.14;32.50
40948;BME280;49382;-25.924;28.194;2022-11-14T11:08:26;85494.78;;;23.47;32.35
40948;BME280;49382;-25.924;28.194;2022-11-14T11:10:57;85496.63;;;23.64;33.23
40948;BME280;49382;-25.924;28.194;2022-11-14T11:15:42;85490.37;;;23.72;32.70
40948;BME280;49382;-25.924;28.194;2022-11-14T11:20:35;85481.99;;;24.93;31.37
40948;BME280;49382;-25.924;28.194;2022-11-14T11:23:03;85477.28;;;24.47;32.13
40948;BME280;49382;-25.924;28.194;2022-11-14T11:25:26;85473.13;;;24.89;31.35
40948;BME280;49382;-25.924;28.194;2022-11-14T11:30:19;85477.19;;;24.72;33.21
40948;BME280;49382;-25.924;28.194;2022-11-14T11:32:41;85477.69;;;25.09;32.47
40948;BME280;49382;-25.924;28.194;2022-11-14T11:35:11;85477.30;;;24.93;33.46
40948;BME280;49382;-25.924;28.194;2022-11-14T11:37:37;85471.54;;;24.48;31.64
40948;BME280;49382;-25.924;28.194;2022-11-14T11:40:03;85472.87;;;24.53;32.08
40948;BME280;49382;-25.924;28.194;2022-11-14T11:42:27;85465.83;;;24.40;32.19
40948;BME280;49382;-25.924;28.194;2022-11-14T11:44:54;85455.10;;;24.84;31.57
40948;BME280;49382;-25.924;28.194;2022-11-14T11:47:17;85458.65;;;24.58;31.41
40948;BME280;49382;-25.924;28.194;2022-11-14T11:49:44;85449.36;;;24.70;31.22
40948;BME280;49382;-25.924;28.194;2022-11-14T11:52:12;85442.68;;;24.95;30.08
40948;BME280;49382;-25.924;28.194;2022-11-14T11:54:42;85442.20;;;24.39;30.59
40948;BME280;49382;-25.924;28.194;2022-11-14T11:57:02;85436.87;;;24.22;31.65
40948;BME280;49382;-25.924;28.194;2022-11-14T11:59:30;85434.27;;;23.96;31.50
40948;BME280;49382;-25.924;28.194;2022-11-14T12:01:51;85431.29;;;23.97;30.55
40948;BME280;49382;-25.924;28.194;2022-11-14T12:04:15;85421.26;;;24.64;30.62
40948;BME280;49382;-25.924;28.194;2022-11-14T12:06:45;85421.70;;;24.45;32.40
40948;BME280;49382;-25.924;28.194;2022-11-14T12:09:14;85421.78;;;24.41;31.89
40948;BME280;49382;-25.924;28.194;2022-11-14T12:11:36;85418.84;;;23.57;32.63
40948;BME280;49382;-25.924;28.194;2022-11-14T12:18:58;85413.54;;;24.29;30.71
40948;BME280;49382;-25.924;28.194;2022-11-14T12:23:51;85408.34;;;24.49;30.96
40948;BME280;49382;-25.924;28.194;2022-11-14T12:28:42;85398.76;;;23.61;30.03
40948;BME280;49382;-25.924;28.194;2022-11-14T12:31:02;85392.86;;;25.01;28.88
40948;BME280;49382;-25.924;28.194;2022-11-14T12:33:25;85387.98;;;25.23;30.09
40948;BME280;49382;-25.924;28.194;2022-11-14T12:35:51;85393.54;;;25.14;30.81
40948;BME280;49382;-25.924;28.194;2022-11-14T12:38:16;85385.80;;;25.01;30.74
40948;BME280;49382;-25.924;28.194;2022-11-14T12:40:47;85388.03;;;24.71;31.77
40948;BME280;49382;-25.924;28.194;2022-11-14T12:50:31;85389.71;;;24.08;30.65
40948;BME280;49382;-25.924;28.194;2022-11-14T12:52:50;85382.25;;;24.26;30.68
40948;BME280;49382;-25.924;28.194;2022-11-14T12:57:44;85379.05;;;24.82;29.29
40948;BME280;49382;-25.924;28.194;2022-11-14T13:00:09;85372.96;;;25.11;28.23
40948;BME280;49382;-25.924;28.194;2022-11-14T13:02:46;85370.40;;;25.06;28.60
40948;BME280;49382;-25.924;28.194;2022-11-14T13:07:31;85374.70;;;24.78;28.90